sensor_id;sensor_type;location;lat;lon;timestamp;temperature;humidity
4374;DHT22;2201;51.100;6.814;2024-03-23T00:56:08;8.60;98.20
4374;DHT22;2201;51.100;6.814;2024-03-23T00:58:34;8.60;98.20
4374;DHT22;2201;51.100;6.814;2024-03-23T01:01:01;8.50;98.20
4374;DHT22;2201;51.100;6.814;2024-03-23T01:03:29;8.40;98.20
4374;DHT22;2201;51.100;6.814;2024-03-23T01:05:59;8.30;98.20
4374;DHT22;2201;51.100;6.814;2024-03-23T01:08:25;8.30;98.20
4374;DHT22;2201;51.100;6.814;2024-03-23T01:10:57;8.20;98.20
4374;DHT22;2201;51.100;6.814;2024-03-23T01:13:23;8.20;98.20
4374;DHT22;2201;51.100;6.814;2024-03-23T01:15:50;8.10;98.20
4374;DHT22;2201;51.100;6.814;2024-03-23T01:18:17;8.10;98.20
4374;DHT22;2201;51.100;6.814;2024-03-23T01:20:44;8.00;98.20
4374;DHT22;2201;51.100;6.814;2024-03-23T01:23:11;8.00;98.20
4374;DHT22;2201;51.100;6.814;2024-03-23T01:25:37;8.00;98.20
4374;DHT22;2201;51.100;6.814;2024-03-23T01:28:06;8.00;98.20
4374;DHT22;2201;51.100;6.814;2024-03-23T01:30:32;8.00;98.20
4374;DHT22;2201;51.100;6.814;2024-03-23T01:32:59;8.00;98.20
4374;DHT22;2201;51.100;6.814;2024-03-23T01:35:24;8.00;98.20
4374;DHT22;2201;51.100;6.814;2024-03-23T01:37:53;8.00;98.20
4374;DHT22;2201;51.100;6.814;2024-03-23T01:40:19;8.00;98.20
4374;DHT22;2201;51.100;6.814;2024-03-23T01:42:55;8.00;98.20
4374;DHT22;2201;51.100;6.814;2024-03-23T01:45:22;8.00;98.20
4374;DHT22;2201;51.100;6.814;2024-03-23T01:47:49;8.00;98.20
4374;DHT22;2201;51.100;6.814;2024-03-23T01:50:16;8.00;98.20
4374;DHT22;2201;51.100;6.814;2024-03-23T01:52:43;8.00;98.20
4374;DHT22;2201;51.100;6.814;2024-03-23T01:55:09;8.00;98.20
4374;DHT22;2201;51.100;6.814;2024-03-23T01:57:36;8.00;98.20
4374;DHT22;2201;51.100;6.814;2024-03-23T02:00:03;7.90;98.20
4374;DHT22;2201;51.100;6.814;2024-03-23T02:02:31;7.80;98.20
4374;DHT22;2201;51.100;6.814;2024-03-23T02:04:57;7.60;98.20
4374;DHT22;2201;51.100;6.814;2024-03-23T02:07:24;7.50;98.20
4374;DHT22;2201;51.100;6.814;2024-03-23T02:09:50;7.40;98.20
4374;DHT22;2201;51.100;6.814;2024-03-23T02:12:18;7.40;98.20
4374;DHT22;2201;51.100;6.814;2024-03-23T02:14:43;7.40;98.20
4374;DHT22;2201;51.100;6.814;2024-03-23T02:17:10;7.40;98.20
4374;DHT22;2201;51.100;6.814;2024-03-23T02:19:38;7.40;98.20
4374;DHT22;2201;51.100;6.814;2024-03-23T02:22:05;7.40;98.20
4374;DHT22;2201;51.100;6.814;2024-03-23T02:24:32;7.40;98.20
4374;DHT22;2201;51.100;6.814;2024-03-23T02:26:59;7.30;98.20
4374;DHT22;2201;51.100;6.814;2024-03-23T02:29:25;7.30;98.20
4374;DHT22;2201;51.100;6.814;2024-03-23T02:31:52;7.30;98.20
4374;DHT22;2201;51.100;6.814;2024-03-23T02:34:18;7.30;98.20
4374;DHT22;2201;51.100;6.814;2024-03-23T02:36:45;7.30;98.20
4374;DHT22;2201;51.100;6.814;2024-03-23T02:39:11;7.30;98.20
4374;DHT22;2201;51.100;6.814;2024-03-23T02:41:39;7.30;98.20
4374;DHT22;2201;51.100;6.814;2024-03-23T02:44:05;7.30;98.20
4374;DHT22;2201;51.100;6.814;2024-03-23T02:46:32;7.40;98.20
4374;DHT22;2201;51.100;6.814;2024-03-23T02:48:58;7.40;98.20
4374;DHT22;2201;51.100;6.814;2024-03-23T02:51:25;7.40;98.20
4374;DHT22;2201;51.100;6.814;2024-03-23T02:53:51;7.50;98.20
4374;DHT22;2201;51.100;6.814;2024-03-23T02:56:17;7.50;98.20
4374;DHT22;2201;51.100;6.814;2024-03-23T02:58:45;7.50;98.20
4374;DHT22;2201;51.100;6.814;2024-03-23T03:01:11;7.50;98.20
4374;DHT22;2201;51.100;6.814;2024-03-23T03:03:37;7.50;98.20
4374;DHT22;2201;51.100;6.814;2024-03-23T03:06:04;7.50;98.20
4374;DHT22;2201;51.100;6.814;2024-03-23T03:08:30;7.50;98.20
4374;DHT22;2201;51.100;6.814;2024-03-23T03:10:57;7.50;98.20
4374;DHT22;2201;51.100;6.814;2024-03-23T03:13:23;7.50;98.20
4374;DHT22;2201;51.100;6.814;2024-03-23T03:15:51;7.50;98.20
4374;DHT22;2201;51.100;6.814;2024-03-23T03:18:18;7.40;98.20
4374;DHT22;2201;51.100;6.814;2024-03-23T03:20:45;7.40;98.20
4374;DHT22;2201;51.100;6.814;2024-03-23T03:23:11;7.50;98.20
4374;DHT22;2201;51.100;6.814;2024-03-23T03:25:38;7.40;98.20
4374;DHT22;2201;51.100;6.814;2024-03-23T03:28:04;7.50;98.20
4374;DHT22;2201;51.100;6.814;2024-03-23T03:30:31;7.50;98.20
4374;DHT22;2201;51.100;6.814;2024-03-23T03:32:58;7.50;98.20
4374;DHT22;2201;51.100;6.814;2024-03-23T03:35:31;7.40;98.20
4374;DHT22;2201;51.100;6.814;2024-03-23T03:37:57;7.40;98.20
4374;DHT22;2201;51.100;6.814;2024-03-23T03:40:38;7.40;98.20
4374;DHT22;2201;51.100;6.814;2024-03-23T03:43:05;7.40;98.20
4374;DHT22;2201;51.100;6.814;2024-03-23T03:45:30;7.40;98.20
4374;DHT22;2201;51.100;6.814;2024-03-23T03:47:59;7.50;98.20
4374;DHT22;2201;51.100;6.814;2024-03-23T03:50:24;7.50;98.20
4374;DHT22;2201;51.100;6.814;2024-03-23T03:52:51;7.40;98.20
4374;DHT22;2201;51.100;6.814;2024-03-23T03:55:17;7.50;98.20
4374;DHT22;2201;51.100;6.814;2024-03-23T03:57:44;7.50;98.20
4374;DHT22;2201;51.100;6.814;2024-03-23T04:00:11;7.50;98.20
4374;DHT22;2201;51.100;6.814;2024-03-23T04:02:38;7.50;98.20
4374;DHT22;2201;51.100;6.814;2024-03-23T04:05:06;7.50;98.20
4374;DHT22;2201;51.100;6.814;2024-03-23T04:07:33;7.50;98.20
4374;DHT22;2201;51.100;6.814;2024-03-23T04:09:59;7.40;98.20
4374;DHT22;2201;51.100;6.814;2024-03-23T04:12:26;7.40;98.20
4374;DHT22;2201;51.100;6.814;2024-03-23T04:14:55;7.40;98.20
4374;DHT22;2201;51.100;6.814;2024-03-23T04:17:22;7.40;98.20
4374;DHT22;2201;51.100;6.814;2024-03-23T04:19:48;7.40;98.20
4374;DHT22;2201;51.100;6.814;2024-03-23T04:22:32;7.40;98.20
4374;DHT22;2201;51.100;6.814;2024-03-23T04:24:58;7.40;98.20
4374;DHT22;2201;51.100;6.814;2024-03-23T04:27:25;7.30;98.20
4374;DHT22;2201;51.100;6.814;2024-03-23T04:29:51;7.30;98.20
4374;DHT22;2201;51.100;6.814;2024-03-23T04:32:19;7.30;98.20
4374;DHT22;2201;51.100;6.814;2024-03-23T04:34:45;7.30;98.20
4374;DHT22;2201;51.100;6.814;2024-03-23T04:37:48;7.30;98.20
4374;DHT22;2201;51.100;6.814;2024-03-23T04:40:20;7.30;98.20
4374;DHT22;2201;51.100;6.814;2024-03-23T04:42:49;7.30;98.20
4374;DHT22;2201;51.100;6.814;2024-03-23T04:45:15;7.20;98.20
4374;DHT22;2201;51.100;6.814;2024-03-23T04:47:42;7.20;98.20
4374;DHT22;2201;51.100;6.814;2024-03-23T04:50:09;7.20;98.20
4374;DHT22;2201;51.100;6.814;2024-03-23T04:52:37;7.10;98.20
4374;DHT22;2201;51.100;6.814;2024-03-23T04:55:07;7.10;98.20
4374;DHT22;2201;51.100;6.814;2024-03-23T04:57:34;7.10;98.20
4374;DHT22;2201;51.100;6.814;2024-03-23T05:00:00;7.10;98.20
4374;DHT22;2201;51.100;6.814;2024-03-23T05:02:30;7.10;98.20
4374;DHT22;2201;51.100;6.814;2024-03-23T05:05:03;7.10;98.20
4374;DHT22;2201;51.100;6.814;2024-03-23T05:07:32;7.10;98.20
4374;DHT22;2201;51.100;6.814;2024-03-23T05:10:19;7.10;98.20
4374;DHT22;2201;51.100;6.814;2024-03-23T05:12:44;7.10;98.20
4374;DHT22;2201;51.100;6.814;2024-03-23T05:15:37;7.10;98.20
4374;DHT22;2201;51.100;6.814;2024-03-23T05:18:04;7.10;98.20
4374;DHT22;2201;51.100;6.814;2024-03-23T05:20:30;7.00;98.20
4374;DHT22;2201;51.100;6.814;2024-03-23T05:23:05;7.10;98.20
4374;DHT22;2201;51.100;6.814;2024-03-23T05:25:42;7.10;98.20
4374;DHT22;2201;51.100;6.814;2024-03-23T05:28:08;7.10;98.20
4374;DHT22;2201;51.100;6.814;2024-03-23T05:30:37;7.00;98.20
4374;DHT22;2201;51.100;6.814;2024-03-23T05:33:03;7.10;98.20
4374;DHT22;2201;51.100;6.814;2024-03-23T05:35:41;7.10;98.20
4374;DHT22;2201;51.100;6.814;2024-03-23T05:38:07;7.10;98.20
4374;DHT22;2201;51.100;6.814;2024-03-23T05:40:33;7.10;98.20
4374;DHT22;2201;51.100;6.814;2024-03-23T05:43:04;7.00;98.20
4374;DHT22;2201;51.100;6.814;2024-03-23T05:45:31;7.00;98.20
4374;DHT22;2201;51.100;6.814;2024-03-23T05:47:56;7.00;98.20
4374;DHT22;2201;51.100;6.814;2024-03-23T05:50:23;7.00;98.20
4374;DHT22;2201;51.100;6.814;2024-03-23T05:52:49;7.00;98.20
4374;DHT22;2201;51.100;6.814;2024-03-23T05:55:16;6.90;98.20
4374;DHT22;2201;51.100;6.814;2024-03-23T05:57:42;6.90;98.20
4374;DHT22;2201;51.100;6.814;2024-03-23T06:00:11;6.90;98.20
4374;DHT22;2201;51.100;6.814;2024-03-23T06:02:41;7.00;98.20
4374;DHT22;2201;51.100;6.814;2024-03-23T06:05:10;7.00;98.20
4374;DHT22;2201;51.100;6.814;2024-03-23T06:07:35;7.10;98.20
4374;DHT22;2201;51.100;6.814;2024-03-23T06:10:02;7.10;98.20
4374;DHT22;2201;51.100;6.814;2024-03-23T06:12:28;7.10;98.20
4374;DHT22;2201;51.100;6.814;2024-03-23T06:14:55;7.10;98.20
4374;DHT22;2201;51.100;6.814;2024-03-23T06:17:22;7.10;98.20
4374;DHT22;2201;51.100;6.814;2024-03-23T06:19:49;7.10;98.20
4374;DHT22;2201;51.100;6.814;2024-03-23T06:22:18;7.10;98.20
4374;DHT22;2201;51.100;6.814;2024-03-23T06:24:45;7.10;98.20
4374;DHT22;2201;51.100;6.814;2024-03-23T06:27:10;7.10;98.20
4374;DHT22;2201;51.100;6.814;2024-03-23T06:29:37;7.10;98.20
4374;DHT22;2201;51.100;6.814;2024-03-23T06:32:04;7.00;98.20
4374;DHT22;2201;51.100;6.814;2024-03-23T06:34:31;7.00;98.20
4374;DHT22;2201;51.100;6.814;2024-03-23T06:36:58;7.00;98.20
4374;DHT22;2201;51.100;6.814;2024-03-23T06:39:24;6.90;98.20
4374;DHT22;2201;51.100;6.814;2024-03-23T06:41:54;6.90;98.20
4374;DHT22;2201;51.100;6.814;2024-03-23T06:44:20;6.90;98.20
4374;DHT22;2201;51.100;6.814;2024-03-23T06:46:47;6.90;98.20
4374;DHT22;2201;51.100;6.814;2024-03-23T06:49:14;7.00;98.20
4374;DHT22;2201;51.100;6.814;2024-03-23T06:51:42;7.20;98.20
4374;DHT22;2201;51.100;6.814;2024-03-23T06:54:08;7.30;98.20
4374;DHT22;2201;51.100;6.814;2024-03-23T06:56:35;7.50;98.20
4374;DHT22;2201;51.100;6.814;2024-03-23T06:59:01;7.70;98.20
4374;DHT22;2201;51.100;6.814;2024-03-23T07:01:28;7.90;98.20
4374;DHT22;2201;51.100;6.814;2024-03-23T07:03:54;8.00;98.20
4374;DHT22;2201;51.100;6.814;2024-03-23T07:06:21;8.20;98.20
4374;DHT22;2201;51.100;6.814;2024-03-23T07:08:48;8.40;98.20
4374;DHT22;2201;51.100;6.814;2024-03-23T07:11:18;8.60;98.20
4374;DHT22;2201;51.100;6.814;2024-03-23T07:13:45;8.80;98.20
4374;DHT22;2201;51.100;6.814;2024-03-23T07:16:13;8.90;98.20
4374;DHT22;2201;51.100;6.814;2024-03-23T07:18:39;9.10;98.20
4374;DHT22;2201;51.100;6.814;2024-03-23T07:21:06;9.30;98.20
4374;DHT22;2201;51.100;6.814;2024-03-23T07:23:32;9.40;98.20
4374;DHT22;2201;51.100;6.814;2024-03-23T07:26:03;9.50;98.20
4374;DHT22;2201;51.100;6.814;2024-03-23T07:28:30;9.60;98.20
4374;DHT22;2201;51.100;6.814;2024-03-23T07:31:05;9.80;98.20
4374;DHT22;2201;51.100;6.814;2024-03-23T07:33:32;9.80;98.20
4374;DHT22;2201;51.100;6.814;2024-03-23T07:35:59;9.90;98.20
4374;DHT22;2201;51.100;6.814;2024-03-23T07:38:26;10.00;98.20
4374;DHT22;2201;51.100;6.814;2024-03-23T07:41:10;10.10;98.20
4374;DHT22;2201;51.100;6.814;2024-03-23T07:43:39;10.20;98.20
4374;DHT22;2201;51.100;6.814;2024-03-23T07:46:07;10.30;98.20
4374;DHT22;2201;51.100;6.814;2024-03-23T07:48:33;10.40;98.20
4374;DHT22;2201;51.100;6.814;2024-03-23T07:51:00;10.40;98.20
4374;DHT22;2201;51.100;6.814;2024-03-23T07:53:27;10.50;98.20
4374;DHT22;2201;51.100;6.814;2024-03-23T07:55:55;10.60;98.20
4374;DHT22;2201;51.100;6.814;2024-03-23T07:58:23;10.60;98.20
4374;DHT22;2201;51.100;6.814;2024-03-23T08:00:50;10.70;98.20
4374;DHT22;2201;51.100;6.814;2024-03-23T08:03:23;10.80;98.20
4374;DHT22;2201;51.100;6.814;2024-03-23T08:05:52;11.00;98.20
4374;DHT22;2201;51.100;6.814;2024-03-23T08:08:19;11.10;98.20
4374;DHT22;2201;51.100;6.814;2024-03-23T08:10:49;11.20;98.20
4374;DHT22;2201;51.100;6.814;2024-03-23T08:13:19;11.30;98.20
4374;DHT22;2201;51.100;6.814;2024-03-23T08:15:48;11.40;98.20
4374;DHT22;2201;51.100;6.814;2024-03-23T08:18:14;11.50;98.20
4374;DHT22;2201;51.100;6.814;2024-03-23T08:20:42;11.70;98.20
4374;DHT22;2201;51.100;6.814;2024-03-23T08:23:08;11.80;98.20
4374;DHT22;2201;51.100;6.814;2024-03-23T08:25:35;11.80;98.20
4374;DHT22;2201;51.100;6.814;2024-03-23T08:28:01;11.60;98.20
4374;DHT22;2201;51.100;6.814;2024-03-23T08:30:28;11.60;98.20
4374;DHT22;2201;51.100;6.814;2024-03-23T08:32:56;11.60;98.20
4374;DHT22;2201;51.100;6.814;2024-03-23T08:35:23;11.70;98.20
4374;DHT22;2201;51.100;6.814;2024-03-23T08:37:52;11.60;98.20
4374;DHT22;2201;51.100;6.814;2024-03-23T08:40:19;11.60;98.20
4374;DHT22;2201;51.100;6.814;2024-03-23T08:42:45;11.70;98.20
4374;DHT22;2201;51.100;6.814;2024-03-23T08:45:12;11.80;98.20
4374;DHT22;2201;51.100;6.814;2024-03-23T08:47:37;11.90;98.20
4374;DHT22;2201;51.100;6.814;2024-03-23T08:50:06;12.00;98.20
4374;DHT22;2201;51.100;6.814;2024-03-23T08:52:51;12.10;98.20
4374;DHT22;2201;51.100;6.814;2024-03-23T08:56:04;12.10;98.20
4374;DHT22;2201;51.100;6.814;2024-03-23T08:59:20;12.00;98.20
4374;DHT22;2201;51.100;6.814;2024-03-23T09:01:59;12.00;98.20
4374;DHT22;2201;51.100;6.814;2024-03-23T09:04:37;12.00;98.20
4374;DHT22;2201;51.100;6.814;2024-03-23T09:07:17;12.00;98.20
4374;DHT22;2201;51.100;6.814;2024-03-23T09:13:09;11.80;98.20
4374;DHT22;2201;51.100;6.814;2024-03-23T09:16:01;11.90;98.20
4374;DHT22;2201;51.100;6.814;2024-03-23T09:18:38;12.30;98.20
4374;DHT22;2201;51.100;6.814;2024-03-23T09:21:30;12.50;98.20
4374;DHT22;2201;51.100;6.814;2024-03-23T09:23:57;12.30;98.20
4374;DHT22;2201;51.100;6.814;2024-03-23T09:26:25;12.10;98.20
4374;DHT22;2201;51.100;6.814;2024-03-23T09:29:24;11.70;98.20
4374;DHT22;2201;51.100;6.814;2024-03-23T09:31:54;11.40;98.20
4374;DHT22;2201;51.100;6.814;2024-03-23T09:34:27;11.50;98.20
4374;DHT22;2201;51.100;6.814;2024-03-23T09:37:07;11.80;98.20
4374;DHT22;2201;51.100;6.814;2024-03-23T09:39:45;12.20;98.20
4374;DHT22;2201;51.100;6.814;2024-03-23T09:42:27;12.40;98.20
4374;DHT22;2201;51.100;6.814;2024-03-23T09:45:00;12.50;98.20
4374;DHT22;2201;51.100;6.814;2024-03-23T09:47:40;12.40;98.20
4374;DHT22;2201;51.100;6.814;2024-03-23T09:50:08;12.30;98.20
4374;DHT22;2201;51.100;6.814;2024-03-23T09:52:35;12.20;98.20
4374;DHT22;2201;51.100;6.814;2024-03-23T09:55:23;12.10;98.20
4374;DHT22;2201;51.100;6.814;2024-03-23T10:00:31;12.00;98.20
4374;DHT22;2201;51.100;6.814;2024-03-23T10:03:08;11.90;98.20
4374;DHT22;2201;51.100;6.814;2024-03-23T10:08:26;12.30;98.20
4374;DHT22;2201;51.100;6.814;2024-03-23T10:11:13;12.20;98.20
4374;DHT22;2201;51.100;6.814;2024-03-23T10:13:47;12.00;98.20
4374;DHT22;2201;51.100;6.814;2024-03-23T10:16:25;11.90;98.20
4374;DHT22;2201;51.100;6.814;2024-03-23T10:18:55;11.70;98.20
4374;DHT22;2201;51.100;6.814;2024-03-23T10:21:27;11.70;98.20
4374;DHT22;2201;51.100;6.814;2024-03-23T10:24:08;11.80;98.20
4374;DHT22;2201;51.100;6.814;2024-03-23T10:26:36;11.70;98.20
4374;DHT22;2201;51.100;6.814;2024-03-23T10:29:12;11.80;98.20
4374;DHT22;2201;51.100;6.814;2024-03-23T10:31:51;11.70;98.20
4374;DHT22;2201;51.100;6.814;2024-03-23T10:34:26;11.50;98.20
4374;DHT22;2201;51.100;6.814;2024-03-23T10:36:56;11.40;98.20
4374;DHT22;2201;51.100;6.814;2024-03-23T10:39:32;11.20;98.20
4374;DHT22;2201;51.100;6.814;2024-03-23T10:45:16;11.00;98.20
4374;DHT22;2201;51.100;6.814;2024-03-23T10:47:51;10.90;98.20
4374;DHT22;2201;51.100;6.814;2024-03-23T10:50:37;10.80;98.20
4374;DHT22;2201;51.100;6.814;2024-03-23T10:53:16;10.70;98.20
4374;DHT22;2201;51.100;6.814;2024-03-23T10:56:03;10.60;98.20
4374;DHT22;2201;51.100;6.814;2024-03-23T10:58:39;10.60;98.20
4374;DHT22;2201;51.100;6.814;2024-03-23T11:01:34;10.50;98.20
4374;DHT22;2201;51.100;6.814;2024-03-23T11:04:10;10.30;98.20
4374;DHT22;2201;51.100;6.814;2024-03-23T11:06:57;9.80;98.20
4374;DHT22;2201;51.100;6.814;2024-03-23T11:20:27;9.00;98.20
4374;DHT22;2201;51.100;6.814;2024-03-23T11:22:50;8.90;98.20
4374;DHT22;2201;51.100;6.814;2024-03-23T11:25:26;8.90;98.20
4374;DHT22;2201;51.100;6.814;2024-03-23T11:27:53;8.90;98.20
4374;DHT22;2201;51.100;6.814;2024-03-23T11:30:22;9.00;98.20
4374;DHT22;2201;51.100;6.814;2024-03-23T11:32:50;9.20;98.20
4374;DHT22;2201;51.100;6.814;2024-03-23T11:35:26;9.90;98.20
4374;DHT22;2201;51.100;6.814;2024-03-23T11:38:06;10.50;98.20
4374;DHT22;2201;51.100;6.814;2024-03-23T11:40:34;11.00;98.20
4374;DHT22;2201;51.100;6.814;2024-03-23T11:43:01;11.40;98.20
4374;DHT22;2201;51.100;6.814;2024-03-23T11:45:29;11.80;98.20
4374;DHT22;2201;51.100;6.814;2024-03-23T11:48:05;12.10;98.20
4374;DHT22;2201;51.100;6.814;2024-03-23T11:50:32;12.30;98.20
4374;DHT22;2201;51.100;6.814;2024-03-23T11:53:15;12.50;98.20
4374;DHT22;2201;51.100;6.814;2024-03-23T11:55:46;12.80;98.20
4374;DHT22;2201;51.100;6.814;2024-03-23T11:58:13;13.00;98.20
4374;DHT22;2201;51.100;6.814;2024-03-23T12:00:40;13.30;98.20
4374;DHT22;2201;51.100;6.814;2024-03-23T12:03:07;13.50;98.20
4374;DHT22;2201;51.100;6.814;2024-03-23T12:05:36;13.70;97.90
4374;DHT22;2201;51.100;6.814;2024-03-23T12:08:21;13.40;95.60
4374;DHT22;2201;51.100;6.814;2024-03-23T12:10:52;12.50;95.50
4374;DHT22;2201;51.100;6.814;2024-03-23T12:13:19;11.60;97.50
4374;DHT22;2201;51.100;6.814;2024-03-23T12:15:47;11.10;98.20
4374;DHT22;2201;51.100;6.814;2024-03-23T12:18:40;10.80;98.20
4374;DHT22;2201;51.100;6.814;2024-03-23T12:21:07;10.50;98.20
4374;DHT22;2201;51.100;6.814;2024-03-23T12:24:04;10.10;98.20
4374;DHT22;2201;51.100;6.814;2024-03-23T12:26:33;9.90;98.20
4374;DHT22;2201;51.100;6.814;2024-03-23T12:29:00;9.70;98.20
4374;DHT22;2201;51.100;6.814;2024-03-23T12:31:27;9.50;98.20
4374;DHT22;2201;51.100;6.814;2024-03-23T12:34:04;9.40;98.20
4374;DHT22;2201;51.100;6.814;2024-03-23T12:44:48;8.70;98.20
4374;DHT22;2201;51.100;6.814;2024-03-23T12:47:18;8.70;98.20
4374;DHT22;2201;51.100;6.814;2024-03-23T12:49:46;8.80;98.20
4374;DHT22;2201;51.100;6.814;2024-03-23T12:52:15;9.10;98.20
4374;DHT22;2201;51.100;6.814;2024-03-23T12:54:41;9.40;98.20
4374;DHT22;2201;51.100;6.814;2024-03-23T12:57:08;9.70;98.20
4374;DHT22;2201;51.100;6.814;2024-03-23T12:59:34;10.00;98.20
4374;DHT22;2201;51.100;6.814;2024-03-23T13:02:02;10.30;98.20
4374;DHT22;2201;51.100;6.814;2024-03-23T13:04:28;10.70;98.20
4374;DHT22;2201;51.100;6.814;2024-03-23T13:06:57;11.00;98.20
4374;DHT22;2201;51.100;6.814;2024-03-23T13:09:23;11.30;98.20
4374;DHT22;2201;51.100;6.814;2024-03-23T13:11:50;11.60;98.20
4374;DHT22;2201;51.100;6.814;2024-03-23T13:14:16;11.80;98.20
4374;DHT22;2201;51.100;6.814;2024-03-23T13:16:43;12.00;98.20
4374;DHT22;2201;51.100;6.814;2024-03-23T13:19:12;12.20;98.20
4374;DHT22;2201;51.100;6.814;2024-03-23T13:21:39;12.40;98.20
4374;DHT22;2201;51.100;6.814;2024-03-23T13:24:07;12.50;98.20
4374;DHT22;2201;51.100;6.814;2024-03-23T13:26:34;12.60;98.20
4374;DHT22;2201;51.100;6.814;2024-03-23T13:29:04;12.70;98.20
4374;DHT22;2201;51.100;6.814;2024-03-23T13:31:32;13.00;98.20
4374;DHT22;2201;51.100;6.814;2024-03-23T13:33:59;13.10;97.50
4374;DHT22;2201;51.100;6.814;2024-03-23T13:36:30;13.20;97.10
4374;DHT22;2201;51.100;6.814;2024-03-23T13:38:56;12.90;97.20
4374;DHT22;2201;51.100;6.814;2024-03-23T13:41:24;12.50;97.50
4374;DHT22;2201;51.100;6.814;2024-03-23T13:43:50;12.20;98.20
4374;DHT22;2201;51.100;6.814;2024-03-23T13:46:17;12.10;98.20
4374;DHT22;2201;51.100;6.814;2024-03-23T13:48:43;12.20;98.20
4374;DHT22;2201;51.100;6.814;2024-03-23T13:51:10;12.20;98.20
4374;DHT22;2201;51.100;6.814;2024-03-23T13:53:36;12.10;98.20
4374;DHT22;2201;51.100;6.814;2024-03-23T13:56:03;11.80;98.00
4374;DHT22;2201;51.100;6.814;2024-03-23T13:58:31;11.80;98.20
4374;DHT22;2201;51.100;6.814;2024-03-23T14:00:58;11.80;98.20
4374;DHT22;2201;51.100;6.814;2024-03-23T14:03:55;11.70;98.20
4374;DHT22;2201;51.100;6.814;2024-03-23T14:06:24;11.70;98.20
4374;DHT22;2201;51.100;6.814;2024-03-23T14:08:50;11.80;98.20
4374;DHT22;2201;51.100;6.814;2024-03-23T14:11:18;11.90;98.20
4374;DHT22;2201;51.100;6.814;2024-03-23T14:13:46;12.10;98.20
4374;DHT22;2201;51.100;6.814;2024-03-23T14:16:13;12.20;98.20
4374;DHT22;2201;51.100;6.814;2024-03-23T14:18:47;12.30;98.20
4374;DHT22;2201;51.100;6.814;2024-03-23T14:21:15;12.50;98.20
4374;DHT22;2201;51.100;6.814;2024-03-23T14:23:40;12.40;97.10
4374;DHT22;2201;51.100;6.814;2024-03-23T14:26:08;12.20;96.80
4374;DHT22;2201;51.100;6.814;2024-03-23T14:28:34;11.90;95.30
4374;DHT22;2201;51.100;6.814;2024-03-23T14:31:10;11.70;97.00
4374;DHT22;2201;51.100;6.814;2024-03-23T14:33:37;11.50;96.80
4374;DHT22;2201;51.100;6.814;2024-03-23T14:36:07;11.20;97.20
4374;DHT22;2201;51.100;6.814;2024-03-23T14:38:33;10.90;98.20
4374;DHT22;2201;51.100;6.814;2024-03-23T14:41:01;10.60;98.20
4374;DHT22;2201;51.100;6.814;2024-03-23T14:43:28;10.30;98.20
4374;DHT22;2201;51.100;6.814;2024-03-23T14:46:10;10.30;98.20
4374;DHT22;2201;51.100;6.814;2024-03-23T14:48:37;10.30;98.20
4374;DHT22;2201;51.100;6.814;2024-03-23T14:51:04;10.30;98.20
4374;DHT22;2201;51.100;6.814;2024-03-23T14:53:31;10.20;98.20
4374;DHT22;2201;51.100;6.814;2024-03-23T14:55:59;10.10;98.20
4374;DHT22;2201;51.100;6.814;2024-03-23T14:58:26;9.90;98.20
4374;DHT22;2201;51.100;6.814;2024-03-23T15:00:53;9.90;98.20
4374;DHT22;2201;51.100;6.814;2024-03-23T15:03:20;9.80;98.20
4374;DHT22;2201;51.100;6.814;2024-03-23T15:05:55;9.70;98.20
4374;DHT22;2201;51.100;6.814;2024-03-23T15:08:21;9.60;98.20
4374;DHT22;2201;51.100;6.814;2024-03-23T15:10:48;9.60;98.20
4374;DHT22;2201;51.100;6.814;2024-03-23T15:13:14;9.70;98.20
4374;DHT22;2201;51.100;6.814;2024-03-23T15:15:42;9.90;98.20
4374;DHT22;2201;51.100;6.814;2024-03-23T15:18:10;10.00;98.20
4374;DHT22;2201;51.100;6.814;2024-03-23T15:20:39;10.20;98.20
4374;DHT22;2201;51.100;6.814;2024-03-23T15:23:05;10.30;98.20
4374;DHT22;2201;51.100;6.814;2024-03-23T15:25:32;10.40;98.20
4374;DHT22;2201;51.100;6.814;2024-03-23T15:27:58;10.40;98.20
4374;DHT22;2201;51.100;6.814;2024-03-23T15:30:31;10.60;98.20
4374;DHT22;2201;51.100;6.814;2024-03-23T15:32:57;10.80;98.20
4374;DHT22;2201;51.100;6.814;2024-03-23T15:35:26;11.00;98.20
4374;DHT22;2201;51.100;6.814;2024-03-23T15:37:53;11.10;98.20
4374;DHT22;2201;51.100;6.814;2024-03-23T15:40:20;11.20;98.20
4374;DHT22;2201;51.100;6.814;2024-03-23T15:42:46;11.20;98.20
4374;DHT22;2201;51.100;6.814;2024-03-23T15:45:13;11.20;98.20
4374;DHT22;2201;51.100;6.814;2024-03-23T15:47:45;11.20;98.20
4374;DHT22;2201;51.100;6.814;2024-03-23T15:50:12;11.10;98.20
4374;DHT22;2201;51.100;6.814;2024-03-23T15:52:38;10.90;97.90
4374;DHT22;2201;51.100;6.814;2024-03-23T15:55:07;10.70;97.60
4374;DHT22;2201;51.100;6.814;2024-03-23T15:57:36;10.50;97.00
4374;DHT22;2201;51.100;6.814;2024-03-23T16:00:04;10.30;98.00
4374;DHT22;2201;51.100;6.814;2024-03-23T16:02:31;10.10;98.20
4374;DHT22;2201;51.100;6.814;2024-03-23T16:04:58;9.90;98.20
4374;DHT22;2201;51.100;6.814;2024-03-23T16:07:28;9.80;98.20
4374;DHT22;2201;51.100;6.814;2024-03-23T16:12:33;9.50;98.20
4374;DHT22;2201;51.100;6.814;2024-03-23T16:15:00;9.40;98.20
4374;DHT22;2201;51.100;6.814;2024-03-23T16:17:26;9.40;98.20
4374;DHT22;2201;51.100;6.814;2024-03-23T16:19:52;9.50;98.20
4374;DHT22;2201;51.100;6.814;2024-03-23T16:22:19;9.70;98.20
4374;DHT22;2201;51.100;6.814;2024-03-23T16:24:45;9.80;98.20
4374;DHT22;2201;51.100;6.814;2024-03-23T16:27:11;9.90;98.20
4374;DHT22;2201;51.100;6.814;2024-03-23T16:29:39;10.10;98.20
4374;DHT22;2201;51.100;6.814;2024-03-23T16:32:05;10.30;98.20
4374;DHT22;2201;51.100;6.814;2024-03-23T16:34:32;10.40;98.20
4374;DHT22;2201;51.100;6.814;2024-03-23T16:37:09;10.50;98.20
4374;DHT22;2201;51.100;6.814;2024-03-23T16:39:37;10.50;98.20
4374;DHT22;2201;51.100;6.814;2024-03-23T16:42:11;10.50;98.20
4374;DHT22;2201;51.100;6.814;2024-03-23T16:44:39;10.40;98.20
4374;DHT22;2201;51.100;6.814;2024-03-23T16:47:05;10.30;98.20
4374;DHT22;2201;51.100;6.814;2024-03-23T16:49:33;10.10;98.20
4374;DHT22;2201;51.100;6.814;2024-03-23T16:51:58;10.00;98.20
4374;DHT22;2201;51.100;6.814;2024-03-23T16:54:25;9.70;98.20
4374;DHT22;2201;51.100;6.814;2024-03-23T16:56:51;9.60;98.20
4374;DHT22;2201;51.100;6.814;2024-03-23T16:59:18;9.40;98.20
4374;DHT22;2201;51.100;6.814;2024-03-23T17:01:45;9.30;98.20
4374;DHT22;2201;51.100;6.814;2024-03-23T17:04:12;9.20;98.20
4374;DHT22;2201;51.100;6.814;2024-03-23T17:06:38;9.00;98.20
4374;DHT22;2201;51.100;6.814;2024-03-23T17:09:05;8.90;98.20
4374;DHT22;2201;51.100;6.814;2024-03-23T17:11:31;8.70;98.20
4374;DHT22;2201;51.100;6.814;2024-03-23T17:13:58;8.60;98.20
4374;DHT22;2201;51.100;6.814;2024-03-23T17:16:24;8.50;98.20
4374;DHT22;2201;51.100;6.814;2024-03-23T17:18:52;8.40;98.20
4374;DHT22;2201;51.100;6.814;2024-03-23T17:21:19;8.30;98.20
4374;DHT22;2201;51.100;6.814;2024-03-23T17:23:45;8.20;98.20
4374;DHT22;2201;51.100;6.814;2024-03-23T17:26:11;8.10;98.20
4374;DHT22;2201;51.100;6.814;2024-03-23T17:28:40;8.00;98.20
4374;DHT22;2201;51.100;6.814;2024-03-23T17:31:14;7.90;98.20
4374;DHT22;2201;51.100;6.814;2024-03-23T17:33:41;7.80;98.20
4374;DHT22;2201;51.100;6.814;2024-03-23T17:36:09;7.80;98.20
4374;DHT22;2201;51.100;6.814;2024-03-23T17:38:36;7.70;98.20
4374;DHT22;2201;51.100;6.814;2024-03-23T17:41:02;7.70;98.20
4374;DHT22;2201;51.100;6.814;2024-03-23T17:43:29;7.70;98.20
4374;DHT22;2201;51.100;6.814;2024-03-23T17:45:56;7.70;98.20
4374;DHT22;2201;51.100;6.814;2024-03-23T17:48:23;7.70;98.20
4374;DHT22;2201;51.100;6.814;2024-03-23T17:50:49;7.70;98.20
4374;DHT22;2201;51.100;6.814;2024-03-23T17:53:27;7.70;98.20